EYPA/PLQ METAR and TAF weather

Enter ICAO airport designator
Station Type Date Time Source
EYPA METAR 2018/07/21 22:50 UTC NOAA

EYPA 212250Z AUTO 19002KT 0100 R19/0400N -UP VV002 19/19 Q1010


Station Type Date Time Source
EYPA Decoded METAR 2018/07/21 22:50 UTC NOAA

Palanga Intl., Lithuania (EYPA) 55-55-12N 021-03E
Jul 21, 2018 - 06:50 PM EDT / 2018.07.21 2250 UTC
Wind: from the S (190 degrees) at 2 MPH (2 KT):0
Visibility: less than 1 mile:0
Sky conditions: obscured
Weather: light precipitation
Temperature: 66 F (19 C)
Dew Point: 66 F (19 C)
Relative Humidity: 100%
Pressure (altimeter): 29.83 in. Hg (1010 hPa)
ob: EYPA 212250Z AUTO 19002KT 0100 R19/0400N -UP VV002 19/19 Q1010
cycle: 23

Station Type Date Time Source
EYPA TAF 2018/07/21 18:06 UTC NOAA

TAF EYPA 211704Z 2118/2218 22006KT 3000 BR SCT008
TEMPO 2118/2120 BKN003
TEMPO 2120/2204 0500 FG
TEMPO 2204/2206 1500 BKN003
BECMG 2207/2208 9000 BKN020


Example: see airport list